Time;durP1;ratioP1;P1;durP2;ratioP2;P2;SDS_P1;SDS_P2;PMS_P1;PMS_P2;Temp;Humidity;BMP_temperature;BMP_pressure;BME280_temperature;BME280_humidity;BME280_pressure;Samples;Min_cycle;Max_cycle;Signal;HPM_P1;HPM_P2
2022/07/09 00:03:23;;;;;;;10.98;6.50;;;;;;;11.35;100.00;97616.75;10412563;28;20320;-74
2022/07/09 00:08:23;;;;;;;11.35;7.10;;;;;;;11.49;100.00;97611.06;10411549;28;20219;-73
2022/07/09 00:13:24;;;;;;;9.27;6.40;;;;;;;11.43;100.00;97601.13;10412664;28;20200;-73
2022/07/09 00:18:24;;;;;;;12.82;6.10;;;;;;;11.48;100.00;97601.50;10411380;28;20592;-74
2022/07/09 00:23:24;;;;;;;8.75;6.30;;;;;;;11.43;100.00;97603.75;10411332;28;20638;-74
2022/07/09 00:28:25;;;;;;;12.57;7.53;;;;;;;11.30;100.00;97611.91;10411187;28;20192;-74
2022/07/09 00:33:25;;;;;;;13.38;7.32;;;;;;;11.42;100.00;97605.56;10411770;28;20219;-73
2022/07/09 00:38:25;;;;;;;9.50;7.25;;;;;;;11.39;100.00;97605.84;10410908;28;20199;-73
2022/07/09 00:43:26;;;;;;;21.58;8.30;;;;;;;11.47;100.00;97592.00;10393718;28;20280;-73
2022/07/09 00:48:26;;;;;;;12.80;7.63;;;;;;;11.45;100.00;97590.50;10410127;28;20208;-74
2022/07/09 00:53:27;;;;;;;9.20;6.82;;;;;;;11.51;100.00;97582.06;10411065;28;20191;-74
2022/07/09 00:58:27;;;;;;;12.70;7.88;;;;;;;11.50;100.00;97583.00;10409841;28;20254;-73
2022/07/09 01:03:28;;;;;;;10.38;7.88;;;;;;;11.44;100.00;97568.69;10407711;28;20536;-74
2022/07/09 01:08:28;;;;;;;12.18;7.90;;;;;;;11.37;100.00;97573.63;10408206;28;20603;-74
2022/07/09 01:13:29;;;;;;;16.23;9.00;;;;;;;11.42;100.00;97562.72;10407995;28;20208;-73
2022/07/09 01:18:29;;;;;;;10.98;9.18;;;;;;;11.42;100.00;97560.09;10407516;28;20192;-74
2022/07/09 01:23:30;;;;;;;17.35;8.63;;;;;;;11.56;100.00;97553.59;10407810;28;20640;-73
2022/07/09 01:28:30;;;;;;;16.48;8.57;;;;;;;11.50;100.00;97543.66;10407201;28;20591;-74
2022/07/09 01:33:31;;;;;;;15.93;9.20;;;;;;;11.56;100.00;97540.47;10407335;28;20601;-74
2022/07/09 01:38:32;;;;;;;18.38;8.13;;;;;;;11.32;100.00;97520.78;10406777;28;20200;-74
2022/07/09 01:43:33;;;;;;;13.85;8.15;;;;;;;11.45;100.00;97517.84;10407692;28;20527;-74
2022/07/09 01:48:35;;;;;;;14.93;8.15;;;;;;;11.33;100.00;97509.31;10405945;28;20193;-74
2022/07/09 01:53:36;;;;;;;10.23;8.23;;;;;;;11.29;100.00;97507.13;10407283;28;20243;-74
2022/07/09 01:58:36;;;;;;;16.85;8.88;;;;;;;11.04;100.00;97501.47;10406214;28;20303;-74
2022/07/09 02:03:36;;;;;;;13.40;8.52;;;;;;;10.97;100.00;97506.47;10371788;28;1010703;-74
2022/07/09 02:08:39;;;;;;;13.80;8.55;;;;;;;11.05;100.00;97487.41;10408153;28;20216;-74
2022/07/09 02:13:39;;;;;;;13.55;9.25;;;;;;;10.98;100.00;97491.56;10407538;28;20192;-74
2022/07/09 02:18:39;;;;;;;19.43;9.17;;;;;;;11.09;100.00;97485.31;10407921;28;20196;-74
2022/07/09 02:23:40;;;;;;;13.80;8.63;;;;;;;11.21;100.00;97481.59;10407323;28;20198;-74
2022/07/09 02:28:41;;;;;;;12.20;7.13;;;;;;;11.38;100.00;97480.03;10407499;28;20184;-73
2022/07/09 02:33:41;;;;;;;13.35;7.40;;;;;;;11.33;100.00;97474.38;10407424;28;20283;-74
2022/07/09 02:38:42;;;;;;;9.23;7.05;;;;;;;11.35;100.00;97483.78;10407385;28;20656;-73
2022/07/09 02:43:43;;;;;;;8.93;6.40;;;;;;;11.40;100.00;97476.28;10407596;28;20561;-73
2022/07/09 02:48:43;;;;;;;12.32;6.95;;;;;;;11.61;100.00;97483.16;10412873;28;20189;-73
2022/07/09 02:53:43;;;;;;;10.88;6.47;;;;;;;11.71;100.00;97483.09;10415548;28;20272;-74
2022/07/09 02:58:44;;;;;;;11.35;5.75;;;;;;;11.90;100.00;97479.56;10419952;28;20197;-73
2022/07/09 03:03:44;;;;;;;10.98;5.57;;;;;;;12.02;100.00;97483.69;10412789;28;20615;-73
2022/07/09 03:08:44;;;;;;;10.70;5.10;;;;;;;12.23;100.00;97472.91;10408347;28;20568;-74
2022/07/09 03:13:45;;;;;;;7.63;4.93;;;;;;;12.35;100.00;97467.44;10407723;28;20192;-74
2022/07/09 03:18:45;;;;;;;11.32;5.60;;;;;;;12.61;100.00;97470.16;10407247;28;20212;-72
2022/07/09 03:23:46;;;;;;;8.90;4.97;;;;;;;12.69;100.00;97464.16;10408292;28;20204;-73
2022/07/09 03:28:47;;;;;;;10.20;5.05;;;;;;;12.76;100.00;97468.66;10406559;28;20686;-73
2022/07/09 03:33:47;;;;;;;11.35;4.97;;;;;;;12.90;100.00;97459.38;10407568;28;20193;-73
2022/07/09 03:38:47;;;;;;;7.63;5.00;;;;;;;13.00;100.00;97460.13;10406796;28;20181;-73
2022/07/09 03:43:48;;;;;;;5.90;4.93;;;;;;;13.03;100.00;97456.34;10406837;28;20284;-73
2022/07/09 03:48:48;;;;;;;10.30;5.28;;;;;;;13.08;100.00;97455.88;10406801;28;20224;-73
2022/07/09 03:53:49;;;;;;;11.07;4.95;;;;;;;13.10;100.00;97460.03;10407513;28;20204;-73
2022/07/09 03:58:49;;;;;;;12.52;6.32;;;;;;;13.00;100.00;97467.16;10405335;28;20319;-75
2022/07/09 04:03:49;;;;;;;11.30;4.90;;;;;;;13.23;100.00;97477.19;10410278;28;20611;-73
2022/07/09 04:08:50;;;;;;;8.75;4.95;;;;;;;13.43;100.00;97468.16;10412230;28;20225;-73
2022/07/09 04:13:50;;;;;;;8.73;4.20;;;;;;;13.61;100.00;97475.16;10412036;28;20207;-74
2022/07/09 04:18:51;;;;;;;11.93;4.75;;;;;;;13.91;100.00;97473.81;10411529;28;20202;-74
2022/07/09 04:23:52;;;;;;;6.03;4.13;;;;;;;13.99;100.00;97465.94;10411994;28;20196;-74
2022/07/09 04:28:53;;;;;;;10.13;4.00;;;;;;;13.98;100.00;97472.22;10411053;28;20226;-74
2022/07/09 04:33:53;;;;;;;9.35;3.80;;;;;;;14.17;100.00;97476.38;10411655;28;20201;-74
2022/07/09 04:38:55;;;;;;;7.68;4.05;;;;;;;14.16;100.00;97471.25;10410946;28;20196;-73
2022/07/09 04:43:55;;;;;;;4.55;3.08;;;;;;;14.27;100.00;97481.50;10411233;28;20329;-73
2022/07/09 04:48:55;;;;;;;8.57;3.55;;;;;;;14.20;100.00;97476.06;10410552;28;20264;-74
2022/07/09 04:53:56;;;;;;;12.48;3.88;;;;;;;14.25;100.00;97479.03;10411308;28;20193;-74
2022/07/09 04:58:56;;;;;;;3.95;3.20;;;;;;;14.38;100.00;97475.94;10410138;28;20250;-72
2022/07/09 05:03:57;;;;;;;14.80;4.03;;;;;;;14.54;100.00;97475.13;10410390;28;20240;-73
2022/07/09 05:08:57;;;;;;;6.28;3.10;;;;;;;14.40;100.00;97465.25;10409801;28;20216;-73
2022/07/09 05:13:58;;;;;;;7.47;3.20;;;;;;;14.27;100.00;97461.25;10409836;28;20192;-73
2022/07/09 05:18:58;;;;;;;6.97;3.20;;;;;;;14.68;100.00;97455.25;10409050;28;20636;-73
2022/07/09 05:24:01;;;;;;;7.30;2.90;;;;;;;14.94;100.00;97449.78;10409678;28;20652;-73
2022/07/09 05:29:02;;;;;;;5.60;2.30;;;;;;;15.33;100.00;97437.72;10409052;28;20208;-73
2022/07/09 05:34:03;;;;;;;3.83;1.88;;;;;;;15.16;100.00;97439.56;10409301;28;20712;-73
2022/07/09 05:39:03;;;;;;;4.38;1.77;;;;;;;15.56;100.00;97445.75;10408847;28;20185;-74
2022/07/09 05:44:03;;;;;;;5.30;1.90;;;;;;;15.63;100.00;97440.59;10407212;28;20885;-73
2022/07/09 05:49:04;;;;;;;4.15;1.70;;;;;;;15.54;100.00;97442.44;10405945;28;20224;-73
2022/07/09 05:54:04;;;;;;;4.13;1.85;;;;;;;15.64;100.00;97427.22;10405761;28;20283;-73
2022/07/09 05:59:04;;;;;;;3.92;1.33;;;;;;;15.27;100.00;97423.38;10403185;28;20199;-74
2022/07/09 06:04:05;;;;;;;3.35;1.42;;;;;;;15.54;100.00;97418.66;10405456;28;20269;-73
2022/07/09 06:09:06;;;;;;;7.13;1.60;;;;;;;16.07;100.00;97399.66;10404683;28;20218;-74
2022/07/09 06:14:07;;;;;;;7.38;1.40;;;;;;;16.20;100.00;97408.66;10406496;28;20671;-74
2022/07/09 06:19:07;;;;;;;3.03;1.10;;;;;;;16.63;100.00;97396.75;10404289;28;20243;-74
2022/07/09 06:24:08;;;;;;;4.10;1.85;;;;;;;16.93;99.84;97395.03;10415532;28;20284;-74
2022/07/09 06:29:08;;;;;;;5.97;2.10;;;;;;;17.65;96.52;97380.34;10415754;28;20308;-74
2022/07/09 06:34:10;;;;;;;8.55;2.40;;;;;;;16.21;100.00;97409.47;10416443;28;20196;-73
2022/07/09 06:44:30;;;;;;;5.07;2.58;;;;;;;15.97;100.00;97421.00;10416005;28;20279;-73
2022/07/09 06:49:30;;;;;;;4.22;2.30;;;;;;;16.88;100.00;97397.41;10415117;28;20577;-73
2022/07/09 06:54:31;;;;;;;4.63;2.22;;;;;;;16.96;99.79;97391.22;10415227;28;20267;-73
2022/07/09 06:59:31;;;;;;;2.17;1.92;;;;;;;16.84;100.00;97414.63;10407071;28;20188;-74
2022/07/09 07:04:31;;;;;;;3.72;2.05;;;;;;;16.30;100.00;97410.25;10412498;28;20230;-73
2022/07/09 07:09:32;;;;;;;4.05;2.08;;;;;;;16.22;100.00;97413.75;10413067;28;20232;-73
2022/07/09 07:14:32;;;;;;;5.32;2.17;;;;;;;16.44;100.00;97425.34;10413528;28;20215;-73
2022/07/09 07:19:32;;;;;;;6.05;2.55;;;;;;;16.20;100.00;97419.22;10412353;28;20197;-73
2022/07/09 07:24:33;;;;;;;4.68;3.00;;;;;;;16.38;100.00;97416.28;10411176;28;20203;-73
2022/07/09 07:29:33;;;;;;;3.88;3.08;;;;;;;16.17;100.00;97408.16;10412223;28;20232;-73
2022/07/09 07:34:33;;;;;;;6.40;3.10;;;;;;;16.34;100.00;97417.66;10411536;28;20284;-73
2022/07/09 07:39:34;;;;;;;5.13;2.90;;;;;;;16.38;100.00;97408.34;10412618;28;20261;-73
2022/07/09 07:44:34;;;;;;;5.00;3.20;;;;;;;16.34;100.00;97406.22;10412042;28;20280;-73
2022/07/09 07:49:34;;;;;;;5.40;3.30;;;;;;;15.92;100.00;97413.56;10411542;28;20220;-73
2022/07/09 07:54:36;;;;;;;5.13;3.75;;;;;;;16.49;100.00;97411.59;10411361;28;20199;-73
2022/07/09 07:59:36;;;;;;;9.45;4.25;;;;;;;16.61;100.00;97418.09;10409967;28;20273;-73
2022/07/09 08:04:36;;;;;;;8.00;4.30;;;;;;;16.75;100.00;97403.28;10411629;28;20336;-73
2022/07/09 08:09:37;;;;;;;5.32;4.38;;;;;;;16.49;100.00;97407.13;10410796;28;20233;-74
2022/07/09 08:14:37;;;;;;;6.28;3.90;;;;;;;16.52;100.00;97393.56;10411688;28;20203;-73
2022/07/09 08:19:37;;;;;;;6.65;3.95;;;;;;;16.61;100.00;97402.22;10410041;28;20267;-73
2022/07/09 08:24:38;;;;;;;7.38;4.45;;;;;;;16.71;100.00;97405.47;10410567;28;20610;-73
2022/07/09 08:29:38;;;;;;;6.32;4.50;;;;;;;16.56;100.00;97401.94;10408971;28;20661;-73
2022/07/09 08:34:38;;;;;;;6.18;5.22;;;;;;;16.15;100.00;97405.69;10408205;28;20216;-73
2022/07/09 08:39:39;;;;;;;6.00;4.20;;;;;;;16.92;100.00;97388.09;10407532;28;20211;-73
2022/07/09 08:44:42;;;;;;;5.80;4.40;;;;;;;16.63;100.00;97388.81;10406118;28;20188;-73
2022/07/09 08:49:45;;;;;;;6.18;4.55;;;;;;;16.48;100.00;97394.09;10406937;28;20642;-72
2022/07/09 08:54:45;;;;;;;5.85;4.90;;;;;;;16.27;100.00;97405.31;10408820;28;20578;-73
2022/07/09 08:59:46;;;;;;;7.80;4.40;;;;;;;16.39;100.00;97393.31;10408167;28;20188;-73
2022/07/09 09:04:46;;;;;;;5.00;4.40;;;;;;;17.05;99.77;97374.25;10410888;28;20270;-73
2022/07/09 09:09:47;;;;;;;8.65;4.78;;;;;;;17.29;97.85;97375.81;10410162;28;20749;-73
2022/07/09 09:14:48;;;;;;;8.88;5.07;;;;;;;17.36;100.00;97389.97;10410429;28;20191;-73
2022/07/09 09:19:49;;;;;;;6.13;5.18;;;;;;;16.90;100.00;97385.63;10409408;28;20177;-73
2022/07/09 09:24:50;;;;;;;6.00;5.20;;;;;;;17.31;100.00;97384.41;10409868;28;20189;-73
2022/07/09 09:29:51;;;;;;;11.07;5.00;;;;;;;16.41;100.00;97394.75;10390535;28;20235;-73
2022/07/09 09:34:51;;;;;;;7.13;5.22;;;;;;;16.07;100.00;97391.72;10404075;28;20196;-73
2022/07/09 09:39:52;;;;;;;7.25;4.53;;;;;;;16.25;100.00;97384.31;10391619;28;20202;-73
2022/07/09 09:44:54;;;;;;;8.75;5.70;;;;;;;16.97;100.00;97359.28;10408973;28;20184;-73
2022/07/09 09:49:56;;;;;;;6.10;4.53;;;;;;;17.14;100.00;97365.22;10390297;28;20213;-73
2022/07/09 09:54:58;;;;;;;14.10;6.43;;;;;;;17.44;100.00;97365.22;10408984;28;20588;-73
2022/07/09 09:59:59;;;;;;;7.65;3.78;;;;;;;17.60;97.01;97354.41;10389667;28;20195;-73
2022/07/09 10:04:59;;;;;;;3.15;2.85;;;;;;;17.93;91.05;97329.31;10406759;28;20228;-73
2022/07/09 10:10:00;;;;;;;8.27;4.35;;;;;;;18.30;90.07;97320.31;10406479;28;20760;-73
2022/07/09 10:15:00;;;;;;;4.75;3.60;;;;;;;17.78;94.45;97335.47;10406484;28;20257;-74
2022/07/09 10:20:05;;;;;;;12.55;5.72;;;;;;;17.87;92.82;97338.00;10406326;28;20185;-73
2022/07/09 10:25:06;;;;;;;4.50;3.60;;;;;;;17.31;92.83;97333.28;10405860;28;20201;-74
2022/07/09 10:30:07;;;;;;;5.40;3.33;;;;;;;16.96;96.16;97344.38;10404847;28;20217;-73
2022/07/09 10:35:08;;;;;;;5.93;4.13;;;;;;;16.43;100.00;97365.50;10389234;28;20631;-72
2022/07/09 10:40:19;;;;;;;4.63;3.88;;;;;;;16.53;100.00;97379.31;10407811;28;20284;-73
2022/07/09 10:45:22;;;;;;;7.57;4.75;;;;;;;16.35;100.00;97362.94;10407624;28;20280;-73
2022/07/09 10:50:24;;;;;;;6.90;4.97;;;;;;;16.52;100.00;97358.31;10406744;28;20252;-73
2022/07/09 10:55:26;;;;;;;8.27;4.30;;;;;;;17.36;100.00;97341.47;10406348;28;20206;-73
2022/07/09 11:00:28;;;;;;;6.72;4.55;;;;;;;18.61;98.38;97328.94;10406533;28;20196;-72
2022/07/09 11:05:29;;;;;;;7.32;3.60;;;;;;;18.21;96.73;97320.63;10399130;28;20697;-72
2022/07/09 11:10:30;;;;;;;4.43;3.50;;;;;;;18.06;95.90;97313.56;10412146;28;20231;-72
2022/07/09 11:15:34;;;;;;;3.58;3.28;;;;;;;17.22;99.78;97322.75;10405426;28;20193;-72
2022/07/09 11:20:38;;;;;;;11.05;3.33;;;;;;;17.05;100.00;97331.91;10354985;28;20200;-72
2022/07/09 11:25:39;;;;;;;4.30;3.17;;;;;;;17.43;100.00;97327.31;10371070;28;20717;-72
2022/07/09 11:30:40;;;;;;;8.23;4.00;;;;;;;17.20;100.00;97329.25;10351736;28;20240;-73
2022/07/09 11:35:43;;;;;;;5.50;3.22;;;;;;;16.96;100.00;97333.81;10342138;28;20189;-73
2022/07/09 11:40:44;;;;;;;5.18;3.05;;;;;;;16.89;100.00;97340.81;10393203;28;20560;-72
2022/07/09 11:45:53;;;;;;;4.88;3.17;;;;;;;17.11;100.00;97331.16;10394398;28;20214;-72
2022/07/09 11:50:54;;;;;;;4.30;3.28;;;;;;;17.05;99.75;97319.47;10412800;28;20258;-71
2022/07/09 11:56:01;;;;;;;4.35;3.28;;;;;;;17.72;98.93;97314.19;10393338;28;20276;-73
2022/07/09 12:01:02;;;;;;;5.70;3.65;;;;;;;17.68;99.27;97316.38;10412236;28;20584;-73
2022/07/09 12:06:03;;;;;;;7.40;4.30;;;;;;;17.09;100.00;97322.56;10409408;28;20248;-72
2022/07/09 12:11:04;;;;;;;5.57;3.17;;;;;;;17.73;94.50;97291.97;10409071;28;20228;-72
2022/07/09 12:16:04;;;;;;;3.90;2.08;;;;;;;18.44;88.61;97268.19;10411981;28;20687;-72
2022/07/09 12:21:05;;;;;;;3.35;2.83;;;;;;;18.48;88.42;97261.50;10411339;28;20540;-72
2022/07/09 12:26:06;;;;;;;5.55;3.00;;;;;;;18.43;88.02;97258.56;10411534;28;20196;-73
2022/07/09 12:31:06;;;;;;;4.43;2.33;;;;;;;18.33;86.35;97244.81;10412026;28;20334;-73
2022/07/09 12:36:07;;;;;;;5.68;2.13;;;;;;;18.44;84.84;97233.69;10411252;28;20189;-73
2022/07/09 12:41:07;;;;;;;2.53;2.10;;;;;;;18.28;83.67;97229.47;10411627;28;20597;-72
2022/07/09 12:46:07;;;;;;;3.58;2.20;;;;;;;18.29;86.21;97243.59;10411075;28;20671;-72
2022/07/09 12:51:08;;;;;;;3.35;2.35;;;;;;;17.47;90.39;97262.38;10409845;28;20767;-72
2022/07/09 12:56:08;;;;;;;3.42;2.40;;;;;;;17.77;88.24;97242.91;10408180;28;20237;-72
2022/07/09 13:01:08;;;;;;;3.45;3.10;;;;;;;17.80;88.23;97235.38;10407975;28;20184;-72
2022/07/09 13:06:31;;;;;;;5.78;2.63;;;;;;;17.62;89.45;97242.94;10409197;28;20602;-72
2022/07/09 13:11:29;;;;;;;3.45;2.65;;;;;;;17.60;89.91;97221.94;10407406;28;20220;-73
2022/07/09 13:16:30;;;;;;;2.95;2.65;;;;;;;17.59;90.59;97240.69;10408077;28;20193;-72
2022/07/09 13:21:31;;;;;;;3.65;2.80;;;;;;;17.62;89.34;97222.56;10405943;28;20595;-73
2022/07/09 13:26:31;;;;;;;4.70;2.80;;;;;;;17.35;93.56;97236.53;10401423;28;20188;-73
2022/07/09 13:31:32;;;;;;;9.32;5.35;;;;;;;17.11;100.00;97249.09;10400501;28;20624;-74
2022/07/09 13:36:32;;;;;;;8.27;5.35;;;;;;;16.53;100.00;97238.31;10400364;28;20193;-73
2022/07/09 13:41:32;;;;;;;6.82;6.18;;;;;;;16.56;100.00;97236.13;10400960;28;20283;-74
2022/07/09 13:46:33;;;;;;;7.63;5.68;;;;;;;16.56;100.00;97228.19;10399776;28;20204;-73
2022/07/09 13:51:34;;;;;;;6.28;5.68;;;;;;;16.78;100.00;97233.56;10399744;28;20228;-74
2022/07/09 13:56:34;;;;;;;8.50;5.53;;;;;;;16.93;100.00;97218.53;10399772;28;20574;-73
2022/07/09 14:01:34;;;;;;;7.15;5.43;;;;;;;16.96;100.00;97205.94;10399867;28;20191;-73
2022/07/09 14:06:36;;;;;;;7.15;4.85;;;;;;;17.37;100.00;97192.97;10398777;28;20365;-73
2022/07/09 14:11:36;;;;;;;5.20;4.70;;;;;;;18.78;100.00;97188.78;10399942;28;20226;-73
2022/07/09 14:16:36;;;;;;;7.30;3.63;;;;;;;18.99;94.66;97164.81;10400233;28;20577;-73
2022/07/09 14:21:37;;;;;;;4.47;3.10;;;;;;;18.42;92.40;97152.66;10365881;28;20199;-73
2022/07/09 14:26:37;;;;;;;4.38;3.30;;;;;;;17.91;96.92;97156.41;10381595;28;20245;-72
2022/07/09 14:31:38;;;;;;;3.67;3.38;;;;;;;17.69;97.21;97153.75;10398952;28;20242;-72
2022/07/09 14:36:38;;;;;;;7.75;5.03;;;;;;;17.57;100.00;97147.31;10378524;28;20196;-73
2022/07/09 14:41:38;;;;;;;5.57;3.25;;;;;;;18.31;95.72;97119.53;10400557;28;20731;-73
2022/07/09 14:46:40;;;;;;;4.25;3.40;;;;;;;17.64;95.83;97129.63;10405683;28;20180;-72
2022/07/09 14:51:40;;;;;;;3.08;2.75;;;;;;;18.41;91.51;97106.75;10404380;28;20212;-73
2022/07/09 14:56:41;;;;;;;3.30;2.65;;;;;;;18.57;88.18;97092.31;10405134;28;20196;-73
2022/07/09 15:01:45;;;;;;;3.13;2.50;;;;;;;18.38;89.15;97103.66;10388806;28;20522;-73
2022/07/09 15:06:45;;;;;;;3.33;2.60;;;;;;;18.35;95.87;97134.06;10405948;28;20225;-73
2022/07/09 15:11:46;;;;;;;3.53;2.80;;;;;;;18.13;100.00;97147.41;10390422;28;20241;-73
2022/07/09 15:16:46;;;;;;;3.45;3.15;;;;;;;17.53;100.00;97140.75;10410125;28;20200;-74
2022/07/09 15:21:46;;;;;;;3.70;3.40;;;;;;;17.01;100.00;97143.50;10411037;28;20181;-73
2022/07/09 15:26:47;;;;;;;4.75;3.63;;;;;;;15.63;100.00;97155.34;10393533;28;20192;-73
2022/07/09 15:31:48;;;;;;;7.20;4.85;;;;;;;16.12;100.00;97157.56;10411844;28;20216;-75
2022/07/09 15:36:48;;;;;;;4.90;4.40;;;;;;;15.81;100.00;97141.88;10411437;28;20287;-75
2022/07/09 15:41:48;;;;;;;5.22;3.00;;;;;;;15.44;100.00;97143.47;10407103;28;20197;-74
2022/07/09 15:46:49;;;;;;;3.00;2.80;;;;;;;15.41;100.00;97125.34;10405635;28;20195;-74
2022/07/09 15:51:49;;;;;;;2.30;2.10;;;;;;;14.96;100.00;97104.84;10390797;28;20251;-73
2022/07/09 15:56:50;;;;;;;2.50;2.30;;;;;;;15.01;100.00;97109.59;10413297;28;20656;-73
2022/07/09 16:01:50;;;;;;;3.67;2.05;;;;;;;15.04;100.00;97097.84;10412805;28;20188;-73
2022/07/09 16:06:51;;;;;;;3.67;2.55;;;;;;;15.24;100.00;97114.06;10412080;28;20221;-72
2022/07/09 16:17:10;;;;;;;3.05;2.10;;;;;;;15.59;100.00;97093.31;10412168;28;20556;-73
2022/07/09 16:22:14;;;;;;;2.85;2.17;;;;;;;15.49;100.00;97080.38;10409867;28;20197;-73
2022/07/09 16:27:14;;;;;;;2.45;2.25;;;;;;;15.31;100.00;97086.78;10411837;28;20201;-73
2022/07/09 16:32:14;;;;;;;2.15;1.90;;;;;;;15.21;100.00;97073.00;10411471;28;20216;-73
2022/07/09 16:37:15;;;;;;;3.75;1.92;;;;;;;14.87;100.00;97082.16;10411519;28;20599;-73
2022/07/09 16:42:15;;;;;;;1.95;1.73;;;;;;;15.10;100.00;97062.84;10411223;28;20366;-73
2022/07/09 16:47:15;;;;;;;2.63;2.38;;;;;;;15.26;100.00;97056.63;10393620;28;20279;-73
2022/07/09 16:52:16;;;;;;;1.42;1.33;;;;;;;15.46;100.00;97041.94;10411291;28;20240;-72
2022/07/09 16:57:16;;;;;;;2.17;1.10;;;;;;;15.73;100.00;97030.94;10393075;28;20204;-72
2022/07/09 17:02:17;;;;;;;1.38;1.10;;;;;;;15.89;100.00;97024.72;10410223;28;20320;-73
2022/07/09 17:07:17;;;;;;;1.30;1.20;;;;;;;15.51;100.00;97022.91;10409674;28;20220;-72
2022/07/09 17:12:17;;;;;;;1.30;1.20;;;;;;;15.61;100.00;97023.47;10415500;28;20224;-75
2022/07/09 17:17:18;;;;;;;1.58;1.08;;;;;;;15.43;100.00;97025.63;10374220;28;20242;-73
2022/07/09 17:22:18;;;;;;;1.52;1.10;;;;;;;15.69;100.00;97022.56;10409635;28;20739;-73
2022/07/09 17:27:18;;;;;;;2.53;1.20;;;;;;;15.69;100.00;97020.75;10409640;28;20645;-73
2022/07/09 17:32:19;;;;;;;1.48;1.38;;;;;;;15.36;100.00;97027.34;10409344;28;20585;-73
2022/07/09 17:37:19;;;;;;;2.05;1.40;;;;;;;15.39;100.00;97025.19;10409656;28;20556;-73
2022/07/09 17:42:20;;;;;;;1.38;1.13;;;;;;;15.29;100.00;97030.69;10408717;28;20673;-72
2022/07/09 17:47:20;;;;;;;2.75;1.50;;;;;;;15.20;100.00;97034.41;10409198;28;20563;-72
2022/07/09 17:52:20;;;;;;;2.85;1.35;;;;;;;15.35;100.00;97023.91;10408690;28;20639;-73
2022/07/09 17:57:21;;;;;;;1.58;1.33;;;;;;;14.80;100.00;97021.34;10408923;28;20267;-73
2022/07/09 18:02:21;;;;;;;1.85;1.60;;;;;;;14.61;100.00;97029.72;10408301;28;20227;-73
2022/07/09 18:07:23;;;;;;;1.33;1.20;;;;;;;14.67;100.00;97020.28;10408351;28;20204;-73
2022/07/09 18:12:23;;;;;;;1.42;1.30;;;;;;;14.44;100.00;97023.69;10406961;28;20565;-72
2022/07/09 18:17:23;;;;;;;2.05;1.60;;;;;;;14.37;100.00;97020.91;10405981;28;20192;-73
2022/07/09 18:22:24;;;;;;;7.47;1.80;;;;;;;14.42;100.00;97015.13;10406204;28;20211;-73
2022/07/09 18:27:24;;;;;;;4.38;1.55;;;;;;;14.17;100.00;97023.16;10406473;28;20192;-73
2022/07/09 18:32:25;;;;;;;1.70;1.60;;;;;;;14.22;100.00;97023.44;10406545;28;20224;-73
2022/07/09 18:37:26;;;;;;;2.67;1.50;;;;;;;14.24;100.00;97028.56;10406704;28;20189;-73
2022/07/09 18:42:26;;;;;;;1.77;1.67;;;;;;;14.09;100.00;97039.00;10406442;28;20184;-74
2022/07/09 18:47:28;;;;;;;2.72;1.85;;;;;;;14.17;100.00;97031.06;10406441;28;20203;-74
2022/07/09 18:52:28;;;;;;;4.15;1.70;;;;;;;14.21;100.00;97026.25;10406115;28;20228;-74
2022/07/09 18:57:30;;;;;;;4.68;1.90;;;;;;;14.07;100.00;97027.81;10405875;28;20197;-74
2022/07/09 19:02:30;;;;;;;2.67;1.73;;;;;;;14.19;100.00;97034.34;10405712;28;20316;-74
2022/07/09 19:07:31;;;;;;;6.15;1.70;;;;;;;14.20;100.00;97030.72;10406081;28;20205;-74
2022/07/09 19:12:33;;;;;;;3.92;2.08;;;;;;;14.14;100.00;97036.69;10405400;28;20263;-73
2022/07/09 19:17:34;;;;;;;2.40;2.03;;;;;;;14.17;100.00;97033.69;10406264;28;20275;-73
2022/07/09 19:22:36;;;;;;;2.30;2.10;;;;;;;14.21;100.00;97035.00;10405283;28;20197;-74
2022/07/09 19:27:36;;;;;;;2.53;2.33;;;;;;;14.17;100.00;97035.53;10406465;28;20578;-74
2022/07/09 19:37:55;;;;;;;2.55;2.17;;;;;;;14.12;100.00;97048.38;10413029;28;20275;-74
2022/07/09 19:42:56;;;;;;;2.03;1.92;;;;;;;14.29;100.00;97052.59;10412158;28;20656;-74
2022/07/09 19:47:56;;;;;;;4.85;2.15;;;;;;;14.23;100.00;97061.19;10412223;28;20687;-73
2022/07/09 19:52:57;;;;;;;6.32;2.28;;;;;;;14.08;100.00;97061.06;10412252;28;20224;-73
2022/07/09 19:57:57;;;;;;;2.75;2.40;;;;;;;14.16;100.00;97058.41;10412616;28;20254;-74
2022/07/09 20:02:57;;;;;;;3.40;2.30;;;;;;;14.21;100.00;97061.34;10412763;28;20320;-74
2022/07/09 20:07:58;;;;;;;5.88;2.65;;;;;;;14.17;100.00;97064.50;10412520;28;20269;-73
2022/07/09 20:12:58;;;;;;;5.00;2.50;;;;;;;14.22;100.00;97073.53;10412373;28;20232;-73
2022/07/09 20:17:58;;;;;;;4.50;2.10;;;;;;;14.22;100.00;97064.81;10412444;28;20192;-74
2022/07/09 20:23:00;;;;;;;2.15;1.95;;;;;;;14.20;100.00;97066.81;10411867;28;20233;-74
2022/07/09 20:28:01;;;;;;;2.30;2.10;;;;;;;14.11;100.00;97068.63;10411928;28;20216;-73
2022/07/09 20:33:02;;;;;;;3.22;2.53;;;;;;;14.04;100.00;97071.13;10411651;28;20578;-73
2022/07/09 20:38:02;;;;;;;3.55;2.45;;;;;;;14.04;100.00;97076.41;10411393;28;20185;-73
2022/07/09 20:43:03;;;;;;;3.42;2.78;;;;;;;14.02;100.00;97074.91;10410363;28;20283;-73
2022/07/09 20:48:04;;;;;;;3.17;2.40;;;;;;;14.17;100.00;97073.22;10411319;28;20189;-73
2022/07/09 20:53:06;;;;;;;4.57;2.28;;;;;;;14.17;100.00;97065.31;10410368;28;20327;-73
2022/07/09 20:58:07;;;;;;;3.72;2.40;;;;;;;14.02;100.00;97062.56;10411231;28;20188;-73
2022/07/09 21:03:07;;;;;;;3.60;2.30;;;;;;;13.95;100.00;97066.03;10409985;28;20243;-73
2022/07/09 21:08:07;;;;;;;4.85;2.45;;;;;;;13.78;100.00;97058.16;10410634;28;20262;-73
2022/07/09 21:13:08;;;;;;;3.70;2.33;;;;;;;13.69;100.00;97051.28;10410009;28;20311;-73
2022/07/09 21:23:27;;;;;;;2.33;2.05;;;;;;;13.72;100.00;97058.84;10409514;28;20653;-73
2022/07/09 21:28:27;;;;;;;2.20;2.00;;;;;;;13.79;100.00;97051.13;10409843;28;20188;-73
2022/07/09 21:33:28;;;;;;;2.60;2.38;;;;;;;13.74;100.00;97049.00;10409062;28;20227;-73
2022/07/09 21:38:28;;;;;;;2.47;2.25;;;;;;;13.85;100.00;97053.06;10409371;28;20510;-73
2022/07/09 21:43:29;;;;;;;2.70;2.30;;;;;;;13.82;100.00;97051.59;10409430;28;20191;-73
2022/07/09 21:48:29;;;;;;;4.63;2.10;;;;;;;13.82;100.00;97048.97;10408984;28;20265;-73
2022/07/09 21:53:29;;;;;;;3.85;2.22;;;;;;;13.84;100.00;97059.31;10408706;28;20285;-72
2022/07/09 21:58:30;;;;;;;3.53;2.40;;;;;;;13.61;100.00;97060.03;10408703;28;20199;-73
2022/07/09 22:03:30;;;;;;;4.88;2.53;;;;;;;13.55;100.00;97058.91;10408064;28;20229;-72
2022/07/09 22:08:30;;;;;;;3.42;2.45;;;;;;;13.32;100.00;97065.78;10408417;28;20204;-73
2022/07/09 22:13:31;;;;;;;5.07;2.33;;;;;;;13.32;100.00;97071.03;10407981;28;20269;-73
2022/07/09 22:18:31;;;;;;;12.73;2.58;;;;;;;13.38;100.00;97068.63;10408136;28;20279;-73
2022/07/09 22:23:32;;;;;;;4.00;2.45;;;;;;;13.34;100.00;97067.28;10407382;28;20200;-72
2022/07/09 22:28:32;;;;;;;3.28;2.08;;;;;;;13.19;100.00;97068.91;10407970;28;20196;-72
2022/07/09 22:33:32;;;;;;;4.10;1.92;;;;;;;13.15;100.00;97070.22;10407247;28;20403;-74
2022/07/09 22:38:33;;;;;;;3.45;1.80;;;;;;;13.00;100.00;97075.28;10408303;28;20193;-73
2022/07/09 22:43:34;;;;;;;2.00;1.80;;;;;;;12.88;100.00;97077.44;10407418;28;20192;-74
2022/07/09 22:48:34;;;;;;;6.72;1.90;;;;;;;12.90;100.00;97075.44;10407497;28;20189;-74
2022/07/09 22:53:34;;;;;;;5.53;2.17;;;;;;;12.98;100.00;97083.34;10406698;28;20229;-73
2022/07/09 22:58:35;;;;;;;2.88;1.95;;;;;;;13.06;100.00;97079.91;10405510;28;20192;-73
2022/07/09 23:03:35;;;;;;;5.22;2.08;;;;;;;13.04;100.00;97076.63;10386876;28;20212;-73
2022/07/09 23:13:54;;;;;;;4.47;1.80;;;;;;;13.09;100.00;97082.19;10414269;28;20224;-72
2022/07/09 23:18:56;;;;;;;2.28;1.60;;;;;;;13.07;100.00;97083.38;10414757;28;20192;-73
2022/07/09 23:23:58;;;;;;;2.85;1.73;;;;;;;13.15;100.00;97075.47;10413570;28;20185;-73
2022/07/09 23:29:01;;;;;;;2.13;1.55;;;;;;;13.06;100.00;97073.81;10413862;28;20666;-73